DLH78 KEWR-EDDF
Flight info
| Callsign | DLH78 |
|---|---|
| Flight time | N/A |
| Altitude | 35000 |
| Route | DCT MERIT DCT HFD DCT PUT DCT BOS DCT BRADD N175G PORTI/M083F380 DCT 47N050W 49N040W 51N030W 53N020W DCT MALOT DCT GISTI/N0474F390 DCT ENJEX DCT ADHAV DCT AGCAT DCT AXNEF DCT ZIPWE DCT OZZIL DCT SAWPE Q63 CPT UL9 BIG L607 KONAN UL607 SPI T180 NIVNU T847 IMCOM IMCOM1A |
| Aircraft | A346/H-VGDW/C |
Departure
| Time | 2026-05-04 20:22 |
|---|---|
| Airport | Newark Liberty International Airport (KEWR) |
Arrival
| Time | N/A |
|---|---|
| Airport | Frankfurt Main Airport (EDDF) |
| Time | Latitude | Longitude | Altitude | Speed | Heading |
|---|---|---|---|---|---|
| 2026-05-04 20:22 | 40.62569 | -74.12145 | 4432 ft | 266 kts | 61° |
| 2026-05-04 20:22 | 40.63778 | -74.10313 | 5155 ft | 265 kts | 34° |
| 2026-05-04 20:23 | 40.65256 | -74.08848 | 5957 ft | 266 kts | 33° |
| 2026-05-04 20:23 | 40.66783 | -74.07501 | 6787 ft | 263 kts | 24° |
| 2026-05-04 20:23 | 40.68470 | -74.06560 | 7462 ft | 265 kts | 15° |
| 2026-05-04 20:23 | 40.70203 | -74.05616 | 8146 ft | 273 kts | 22° |
| 2026-05-04 20:24 | 40.71925 | -74.04407 | 8592 ft | 291 kts | 33° |
| 2026-05-04 20:24 | 40.73392 | -74.02473 | 9154 ft | 303 kts | 49° |
| 2026-05-04 20:24 | 40.74696 | -74.00273 | 9942 ft | 305 kts | 49° |
| 2026-05-04 20:24 | 40.76042 | -73.98078 | 10562 ft | 312 kts | 46° |
| 2026-05-04 20:25 | 40.77504 | -73.95870 | 10891 ft | 327 kts | 44° |
| 2026-05-04 20:25 | 40.79099 | -73.93600 | 11207 ft | 344 kts | 43° |
| 2026-05-04 20:25 | 40.80803 | -73.91253 | 11510 ft | 361 kts | 43° |
| 2026-05-04 20:25 | 40.82595 | -73.88825 | 11820 ft | 378 kts | 43° |
| 2026-05-04 20:26 | 40.84481 | -73.86290 | 12140 ft | 394 kts | 42° |
| 2026-05-04 20:26 | 40.86430 | -73.83683 | 12703 ft | 402 kts | 42° |
| 2026-05-04 20:26 | 40.88398 | -73.81048 | 13482 ft | 404 kts | 42° |
| 2026-05-04 20:26 | 40.90395 | -73.78374 | 14159 ft | 408 kts | 42° |
| 2026-05-04 20:27 | 40.92404 | -73.75685 | 14772 ft | 412 kts | 42° |
| 2026-05-04 20:27 | 40.94422 | -73.72983 | 15410 ft | 415 kts | 42° |
| 2026-05-04 20:27 | 40.96464 | -73.70247 | 16059 ft | 418 kts | 42° |
| 2026-05-04 20:27 | 40.98520 | -73.67490 | 16703 ft | 422 kts | 41° |
| 2026-05-04 20:28 | 41.00589 | -73.64714 | 17340 ft | 425 kts | 42° |
| 2026-05-04 20:28 | 41.02677 | -73.61913 | 17987 ft | 428 kts | 42° |
| 2026-05-04 20:28 | 41.04777 | -73.59091 | 18557 ft | 432 kts | 42° |
| 2026-05-04 20:28 | 41.06895 | -73.56238 | 19108 ft | 435 kts | 41° |
| 2026-05-04 20:29 | 41.09023 | -73.53369 | 19670 ft | 437 kts | 41° |
| 2026-05-04 20:29 | 41.11158 | -73.50488 | 20246 ft | 439 kts | 41° |
| 2026-05-04 20:29 | 41.13308 | -73.47585 | 20808 ft | 442 kts | 41° |
| 2026-05-04 20:29 | 41.15468 | -73.44667 | 21350 ft | 444 kts | 41° |
| 2026-05-04 20:30 | 41.17642 | -73.41728 | 21907 ft | 447 kts | 41° |
| 2026-05-04 20:30 | 41.19823 | -73.38775 | 22467 ft | 449 kts | 41° |
| 2026-05-04 20:30 | 41.22018 | -73.35800 | 23022 ft | 452 kts | 41° |
| 2026-05-04 20:30 | 41.24230 | -73.32801 | 23538 ft | 455 kts | 41° |
| 2026-05-04 20:31 | 41.26449 | -73.29789 | 23975 ft | 457 kts | 41° |
| 2026-05-04 20:31 | 41.28680 | -73.26757 | 24426 ft | 459 kts | 41° |
| 2026-05-04 20:31 | 41.30920 | -73.23709 | 24870 ft | 461 kts | 41° |
| 2026-05-04 20:31 | 41.33172 | -73.20640 | 25287 ft | 464 kts | 41° |
| 2026-05-04 20:32 | 41.35420 | -73.17542 | 25709 ft | 468 kts | 42° |
| 2026-05-04 20:32 | 41.37548 | -73.14232 | 26158 ft | 473 kts | 46° |
| 2026-05-04 20:32 | 41.39505 | -73.10672 | 26571 ft | 479 kts | 51° |
| 2026-05-04 20:32 | 41.41290 | -73.06888 | 26971 ft | 484 kts | 54° |
| 2026-05-04 20:33 | 41.43008 | -73.03016 | 27350 ft | 487 kts | 54° |
| 2026-05-04 20:33 | 41.44717 | -72.99110 | 27724 ft | 490 kts | 54° |
| 2026-05-04 20:33 | 41.46441 | -72.95163 | 28105 ft | 493 kts | 54° |
| 2026-05-04 20:33 | 41.48176 | -72.91202 | 28490 ft | 495 kts | 54° |
| 2026-05-04 20:34 | 41.49914 | -72.87239 | 28970 ft | 494 kts | 54° |
| 2026-05-04 20:34 | 41.51649 | -72.83277 | 29570 ft | 493 kts | 54° |
| 2026-05-04 20:34 | 41.53377 | -72.79334 | 30120 ft | 491 kts | 54° |
| 2026-05-04 20:34 | 41.55101 | -72.75400 | 30583 ft | 490 kts | 54° |
| 2026-05-04 20:35 | 41.56819 | -72.71477 | 31052 ft | 488 kts | 54° |
| 2026-05-04 20:35 | 41.58531 | -72.67563 | 31542 ft | 487 kts | 54° |
| 2026-05-04 20:35 | 41.60235 | -72.63663 | 32009 ft | 485 kts | 54° |
| 2026-05-04 20:35 | 41.61932 | -72.59769 | 32501 ft | 483 kts | 54° |
| 2026-05-04 20:36 | 41.63624 | -72.55886 | 32980 ft | 481 kts | 54° |
| 2026-05-04 20:36 | 41.65324 | -72.52030 | 33424 ft | 480 kts | 53° |
| 2026-05-04 20:36 | 41.67051 | -72.48205 | 33805 ft | 480 kts | 53° |
| 2026-05-04 20:36 | 41.68802 | -72.44350 | 34076 ft | 482 kts | 53° |
| 2026-05-04 20:37 | 41.70523 | -72.40556 | 34280 ft | 484 kts | 53° |
| 2026-05-04 20:37 | 41.72270 | -72.36693 | 34490 ft | 487 kts | 53° |
| 2026-05-04 20:37 | 41.74026 | -72.32795 | 34704 ft | 489 kts | 53° |
| 2026-05-04 20:37 | 41.75786 | -72.28877 | 34886 ft | 492 kts | 54° |
| 2026-05-04 20:38 | 41.79321 | -72.20984 | 34910 ft | 495 kts | 54° |
| 2026-05-04 20:38 | 41.82865 | -72.13038 | 34912 ft | 496 kts | 54° |
| 2026-05-04 20:39 | 41.86414 | -72.05060 | 34900 ft | 496 kts | 54° |
| 2026-05-04 20:39 | 41.89956 | -71.97082 | 34896 ft | 496 kts | 54° |
| 2026-05-04 20:40 | 41.93508 | -71.89059 | 34892 ft | 496 kts | 54° |
| 2026-05-04 20:40 | 41.97063 | -71.81143 | 34915 ft | 497 kts | 53° |
| 2026-05-04 20:41 | 42.00824 | -71.73281 | 34895 ft | 497 kts | 52° |
| 2026-05-04 20:41 | 42.04574 | -71.65454 | 34883 ft | 497 kts | 52° |
| 2026-05-04 20:42 | 42.08298 | -71.57611 | 34881 ft | 497 kts | 52° |
| 2026-05-04 20:42 | 42.12030 | -71.49726 | 34900 ft | 499 kts | 53° |
| 2026-05-04 20:43 | 42.15753 | -71.41814 | 34882 ft | 499 kts | 53° |
| 2026-05-04 20:43 | 42.19470 | -71.33895 | 34860 ft | 499 kts | 53° |
| 2026-05-04 20:44 | 42.23195 | -71.25940 | 34852 ft | 499 kts | 53° |
| 2026-05-04 20:44 | 42.26906 | -71.17995 | 34883 ft | 500 kts | 53° |
| 2026-05-04 20:45 | 42.30619 | -71.10019 | 34840 ft | 499 kts | 53° |
| 2026-05-04 20:45 | 42.34100 | -71.01856 | 34837 ft | 502 kts | 59° |
| 2026-05-04 20:46 | 42.36917 | -70.93141 | 34837 ft | 506 kts | 66° |
| 2026-05-04 20:46 | 42.39064 | -70.84020 | 34836 ft | 509 kts | 70° |
| 2026-05-04 20:47 | 42.41040 | -70.74773 | 34849 ft | 511 kts | 70° |
| 2026-05-04 20:47 | 42.43020 | -70.65494 | 34843 ft | 511 kts | 70° |
| 2026-05-04 20:48 | 42.44999 | -70.56249 | 34849 ft | 511 kts | 70° |
| 2026-05-04 20:48 | 42.46974 | -70.47046 | 34855 ft | 512 kts | 71° |
| 2026-05-04 20:49 | 42.48951 | -70.37754 | 34856 ft | 513 kts | 71° |
| 2026-05-04 20:49 | 42.50926 | -70.28421 | 34871 ft | 513 kts | 71° |
| 2026-05-04 20:50 | 42.52891 | -70.19104 | 34872 ft | 513 kts | 71° |
| 2026-05-04 20:50 | 42.54858 | -70.09773 | 34861 ft | 515 kts | 72° |
| 2026-05-04 20:51 | 42.56813 | -70.00418 | 34870 ft | 515 kts | 72° |
| 2026-05-04 20:51 | 42.58762 | -69.91051 | 34866 ft | 515 kts | 72° |
| 2026-05-04 20:52 | 42.60707 | -69.81673 | 34871 ft | 517 kts | 72° |
| 2026-05-04 20:52 | 42.62326 | -69.73836 | 34878 ft | 517 kts | 72° |
| 2026-05-04 20:53 | 42.64577 | -69.62878 | 34870 ft | 517 kts | 72° |
| 2026-05-04 20:53 | 42.66507 | -69.53436 | 34871 ft | 517 kts | 72° |
| 2026-05-04 20:54 | 42.68111 | -69.45568 | 34873 ft | 520 kts | 72° |
| 2026-05-04 20:54 | 42.70038 | -69.36065 | 34870 ft | 520 kts | 72° |
| 2026-05-04 20:55 | 42.71955 | -69.26559 | 34872 ft | 520 kts | 72° |
| 2026-05-04 20:55 | 42.73864 | -69.17056 | 34858 ft | 520 kts | 73° |
| 2026-05-04 20:56 | 42.75774 | -69.07515 | 34871 ft | 523 kts | 73° |
| 2026-05-04 20:56 | 42.77677 | -68.97943 | 34881 ft | 523 kts | 73° |
| 2026-05-04 20:57 | 42.79570 | -68.88376 | 34869 ft | 523 kts | 73° |
| 2026-05-04 20:57 | 42.81462 | -68.78795 | 34871 ft | 524 kts | 74° |
| 2026-05-04 20:58 | 42.83349 | -68.69164 | 34880 ft | 525 kts | 74° |
| 2026-05-04 20:58 | 42.85225 | -68.59537 | 34872 ft | 525 kts | 74° |
| 2026-05-04 20:59 | 42.87083 | -68.49964 | 34881 ft | 525 kts | 74° |
| 2026-05-04 20:59 | 42.88950 | -68.40306 | 34891 ft | 527 kts | 74° |
| 2026-05-04 21:00 | 42.90811 | -68.30623 | 34888 ft | 527 kts | 74° |
| 2026-05-04 21:00 | 42.92664 | -68.20934 | 34891 ft | 527 kts | 74° |
| 2026-05-04 21:01 | 42.94509 | -68.11239 | 34886 ft | 527 kts | 75° |
| 2026-05-04 21:01 | 42.96351 | -68.01515 | 34890 ft | 529 kts | 75° |
| 2026-05-04 21:02 | 42.98186 | -67.91775 | 34884 ft | 529 kts | 75° |
| 2026-05-04 21:02 | 43.00018 | -67.82001 | 34894 ft | 529 kts | 75° |
| 2026-05-04 21:03 | 43.01829 | -67.72293 | 34884 ft | 530 kts | 75° |
| 2026-05-04 21:03 | 43.03646 | -67.62501 | 34883 ft | 530 kts | 75° |
| 2026-05-04 21:04 | 43.05454 | -67.52700 | 34887 ft | 530 kts | 75° |
| 2026-05-04 21:04 | 43.07252 | -67.42905 | 34886 ft | 530 kts | 75° |
| 2026-05-04 21:05 | 43.09041 | -67.33108 | 34908 ft | 530 kts | 75° |
| 2026-05-04 21:05 | 43.10827 | -67.23273 | 34886 ft | 532 kts | 75° |
| 2026-05-04 21:06 | 43.12608 | -67.13407 | 34884 ft | 534 kts | 75° |
| 2026-05-04 21:06 | 43.14421 | -67.03519 | 34891 ft | 535 kts | 73° |
| 2026-05-04 21:07 | 43.16828 | -66.93881 | 34890 ft | 534 kts | 66° |
| 2026-05-04 21:07 | 43.19681 | -66.84484 | 34908 ft | 534 kts | 65° |
| 2026-05-04 21:08 | 43.22564 | -66.75076 | 34887 ft | 534 kts | 66° |
| 2026-05-04 21:08 | 43.25426 | -66.65632 | 34882 ft | 537 kts | 66° |
| 2026-05-04 21:09 | 43.28262 | -66.56205 | 34887 ft | 537 kts | 66° |
| 2026-05-04 21:09 | 43.31104 | -66.46716 | 34889 ft | 538 kts | 66° |
| 2026-05-04 21:10 | 43.33949 | -66.37176 | 34886 ft | 538 kts | 66° |
| 2026-05-04 21:10 | 43.36783 | -66.27633 | 34883 ft | 538 kts | 66° |
| 2026-05-04 21:11 | 43.39611 | -66.18075 | 34879 ft | 540 kts | 66° |
| 2026-05-04 21:11 | 43.42443 | -66.08473 | 34900 ft | 542 kts | 66° |
| 2026-05-04 21:12 | 43.45271 | -65.98847 | 34887 ft | 543 kts | 66° |
| 2026-05-04 21:12 | 43.48099 | -65.89182 | 34886 ft | 543 kts | 66° |
| 2026-05-04 21:13 | 43.50896 | -65.79589 | 34886 ft | 543 kts | 66° |
| 2026-05-04 21:13 | 43.53707 | -65.69912 | 34886 ft | 543 kts | 67° |
| 2026-05-04 21:14 | 43.56512 | -65.60216 | 34884 ft | 544 kts | 67° |
| 2026-05-04 21:14 | 43.59309 | -65.50510 | 34883 ft | 544 kts | 67° |
| 2026-05-04 21:15 | 43.62099 | -65.40790 | 34877 ft | 544 kts | 67° |
| 2026-05-04 21:15 | 43.64888 | -65.31037 | 34884 ft | 544 kts | 67° |
| 2026-05-04 21:16 | 43.67665 | -65.21287 | 34875 ft | 544 kts | 67° |
| 2026-05-04 21:16 | 43.70417 | -65.11589 | 34860 ft | 545 kts | 68° |
| 2026-05-04 21:17 | 43.73183 | -65.01808 | 34863 ft | 545 kts | 68° |
| 2026-05-04 21:17 | 43.75936 | -64.92028 | 34866 ft | 546 kts | 68° |
| 2026-05-04 21:18 | 43.78692 | -64.82195 | 34866 ft | 546 kts | 68° |
| 2026-05-04 21:18 | 43.81437 | -64.72366 | 34856 ft | 546 kts | 68° |
| 2026-05-04 21:19 | 43.84172 | -64.62533 | 34856 ft | 546 kts | 68° |
| 2026-05-04 21:19 | 43.86903 | -64.52685 | 34851 ft | 547 kts | 68° |
| 2026-05-04 21:20 | 43.89633 | -64.42793 | 34858 ft | 547 kts | 68° |
| 2026-05-04 21:20 | 43.92329 | -64.32975 | 34859 ft | 547 kts | 68° |
| 2026-05-04 21:21 | 43.95035 | -64.23087 | 34869 ft | 547 kts | 69° |
| 2026-05-04 21:21 | 43.97736 | -64.13181 | 34869 ft | 547 kts | 69° |
| 2026-05-04 21:22 | 44.00421 | -64.03290 | 34857 ft | 547 kts | 69° |
| 2026-05-04 21:22 | 44.03106 | -63.93376 | 34861 ft | 549 kts | 69° |
| 2026-05-04 21:23 | 44.05787 | -63.83413 | 34855 ft | 549 kts | 69° |
| 2026-05-04 21:23 | 44.08456 | -63.73455 | 34871 ft | 549 kts | 69° |
| 2026-05-04 21:24 | 44.11123 | -63.63465 | 34855 ft | 549 kts | 69° |
| 2026-05-04 21:24 | 44.13775 | -63.53494 | 34841 ft | 549 kts | 69° |
| 2026-05-04 21:25 | 44.16421 | -63.43507 | 34836 ft | 549 kts | 70° |
| 2026-05-04 21:25 | 44.19048 | -63.33550 | 34855 ft | 550 kts | 70° |
| 2026-05-04 21:26 | 44.21675 | -63.23541 | 34850 ft | 549 kts | 70° |
| 2026-05-04 21:26 | 44.24296 | -63.13520 | 34844 ft | 549 kts | 70° |
| 2026-05-04 21:27 | 44.26907 | -63.03492 | 34846 ft | 549 kts | 70° |
| 2026-05-04 21:27 | 44.29507 | -62.93465 | 34855 ft | 549 kts | 70° |
| 2026-05-04 21:28 | 44.32104 | -62.83411 | 34837 ft | 550 kts | 70° |
| 2026-05-04 21:28 | 44.34693 | -62.73344 | 34852 ft | 550 kts | 70° |
| 2026-05-04 21:29 | 44.37274 | -62.63258 | 34847 ft | 550 kts | 70° |
| 2026-05-04 21:29 | 44.39849 | -62.53154 | 34849 ft | 550 kts | 70° |
| 2026-05-04 21:30 | 44.42408 | -62.43069 | 34849 ft | 549 kts | 70° |
| 2026-05-04 21:30 | 44.44957 | -62.32981 | 34843 ft | 549 kts | 70° |
| 2026-05-04 21:31 | 44.48770 | -62.17808 | 34845 ft | 549 kts | 71° |
| 2026-05-04 21:32 | 44.51281 | -62.07760 | 34848 ft | 548 kts | 71° |
| 2026-05-04 21:32 | 44.53793 | -61.97666 | 34840 ft | 548 kts | 71° |
| 2026-05-04 21:33 | 44.56297 | -61.87561 | 34837 ft | 548 kts | 71° |
| 2026-05-04 21:33 | 44.58795 | -61.77436 | 34837 ft | 548 kts | 71° |
| 2026-05-04 21:34 | 44.61284 | -61.67305 | 34833 ft | 549 kts | 71° |
| 2026-05-04 21:34 | 44.63766 | -61.57149 | 34831 ft | 549 kts | 71° |
| 2026-05-04 21:35 | 44.66239 | -61.46983 | 34834 ft | 549 kts | 71° |
| 2026-05-04 21:35 | 44.68703 | -61.36814 | 34828 ft | 549 kts | 71° |
| 2026-05-04 21:36 | 44.71141 | -61.26704 | 34845 ft | 548 kts | 71° |
| 2026-05-04 21:36 | 44.73582 | -61.16535 | 34800 ft | 548 kts | 71° |
| 2026-05-04 21:37 | 44.76023 | -61.06332 | 34816 ft | 550 kts | 71° |
| 2026-05-04 21:37 | 44.78459 | -60.96093 | 34824 ft | 550 kts | 72° |
| 2026-05-04 21:38 | 44.80883 | -60.85859 | 34833 ft | 550 kts | 72° |
| 2026-05-04 21:38 | 44.83294 | -60.75634 | 34825 ft | 549 kts | 72° |
| 2026-05-04 21:39 | 44.85290 | -60.67132 | 34820 ft | 549 kts | 72° |
| 2026-05-04 21:39 | 44.88073 | -60.55227 | 34793 ft | 549 kts | 72° |
| 2026-05-04 21:40 | 44.90465 | -60.44942 | 34808 ft | 551 kts | 72° |
| 2026-05-04 21:40 | 44.92461 | -60.36315 | 34810 ft | 551 kts | 72° |
| 2026-05-04 21:41 | 44.94835 | -60.26014 | 34817 ft | 551 kts | 72° |
| 2026-05-04 21:41 | 44.97203 | -60.15690 | 34817 ft | 551 kts | 72° |
| 2026-05-04 21:42 | 44.99545 | -60.05429 | 34826 ft | 551 kts | 72° |
| 2026-05-04 21:42 | 45.01889 | -59.95112 | 34802 ft | 550 kts | 72° |
| 2026-05-04 21:43 | 45.04227 | -59.84779 | 34812 ft | 551 kts | 72° |
| 2026-05-04 21:43 | 45.06555 | -59.74440 | 34814 ft | 551 kts | 73° |
| 2026-05-04 21:44 | 45.08872 | -59.64095 | 34807 ft | 551 kts | 73° |
| 2026-05-04 21:44 | 45.11178 | -59.53750 | 34811 ft | 549 kts | 73° |
| 2026-05-04 21:45 | 45.13470 | -59.43417 | 34807 ft | 549 kts | 73° |
| 2026-05-04 21:45 | 45.15756 | -59.33061 | 34800 ft | 550 kts | 73° |
| 2026-05-04 21:46 | 45.18034 | -59.22691 | 34804 ft | 551 kts | 73° |
| 2026-05-04 21:46 | 45.20303 | -59.12309 | 34814 ft | 550 kts | 73° |
| 2026-05-04 21:47 | 45.22548 | -59.01986 | 34806 ft | 550 kts | 73° |
| 2026-05-04 21:47 | 45.24808 | -58.91534 | 34804 ft | 550 kts | 73° |
| 2026-05-04 21:48 | 45.27032 | -58.81197 | 34801 ft | 550 kts | 73° |
| 2026-05-04 21:48 | 45.29265 | -58.70780 | 34804 ft | 551 kts | 74° |
| 2026-05-04 21:49 | 45.31492 | -58.60330 | 34802 ft | 552 kts | 74° |
| 2026-05-04 21:49 | 45.33709 | -58.49871 | 34801 ft | 552 kts | 74° |
| 2026-05-04 21:50 | 45.35918 | -58.39400 | 34808 ft | 552 kts | 74° |
| 2026-05-04 21:50 | 45.38116 | -58.28929 | 34808 ft | 551 kts | 74° |
| 2026-05-04 21:51 | 45.40301 | -58.18466 | 34802 ft | 550 kts | 74° |
| 2026-05-04 21:51 | 45.42479 | -58.07985 | 34794 ft | 552 kts | 74° |
| 2026-05-04 21:52 | 45.44649 | -57.97487 | 34800 ft | 552 kts | 75° |
| 2026-05-04 21:52 | 45.46812 | -57.86959 | 34818 ft | 553 kts | 75° |
| 2026-05-04 21:53 | 45.48950 | -57.76499 | 34798 ft | 552 kts | 75° |
| 2026-05-04 21:53 | 45.51091 | -57.65977 | 34804 ft | 552 kts | 75° |
| 2026-05-04 21:54 | 45.53221 | -57.55451 | 34803 ft | 551 kts | 75° |
| 2026-05-04 21:54 | 45.55349 | -57.44884 | 34794 ft | 554 kts | 75° |
| 2026-05-04 21:55 | 45.57470 | -57.34284 | 34801 ft | 554 kts | 75° |
| 2026-05-04 21:55 | 45.59585 | -57.23672 | 34798 ft | 554 kts | 75° |
| 2026-05-04 21:56 | 45.61675 | -57.13126 | 34804 ft | 554 kts | 75° |
| 2026-05-04 21:56 | 45.63768 | -57.02503 | 34801 ft | 554 kts | 75° |
| 2026-05-04 21:57 | 45.65850 | -56.91875 | 34805 ft | 553 kts | 75° |
| 2026-05-04 21:57 | 45.67924 | -56.81236 | 34796 ft | 554 kts | 75° |
| 2026-05-04 21:58 | 45.69985 | -56.70601 | 34790 ft | 554 kts | 75° |
| 2026-05-04 21:58 | 45.72033 | -56.59967 | 34792 ft | 554 kts | 75° |
| 2026-05-04 21:59 | 45.74079 | -56.49292 | 34794 ft | 554 kts | 75° |
| 2026-05-04 21:59 | 45.76106 | -56.38649 | 34799 ft | 553 kts | 76° |
| 2026-05-04 22:00 | 45.78110 | -56.28072 | 34793 ft | 553 kts | 76° |
| 2026-05-04 22:00 | 45.80119 | -56.17408 | 34789 ft | 553 kts | 76° |
| 2026-05-04 22:01 | 45.82118 | -56.06746 | 34792 ft | 553 kts | 76° |
| 2026-05-04 22:01 | 45.84105 | -55.96079 | 34788 ft | 553 kts | 76° |
| 2026-05-04 22:02 | 45.86082 | -55.85411 | 34798 ft | 553 kts | 76° |
| 2026-05-04 22:02 | 45.88049 | -55.74734 | 34796 ft | 553 kts | 76° |
| 2026-05-04 22:03 | 45.90009 | -55.64033 | 34792 ft | 553 kts | 76° |
| 2026-05-04 22:03 | 45.91960 | -55.53325 | 34799 ft | 552 kts | 76° |
| 2026-05-04 22:04 | 45.93894 | -55.42635 | 34792 ft | 552 kts | 76° |
| 2026-05-04 22:04 | 45.95819 | -55.31940 | 34801 ft | 552 kts | 76° |
| 2026-05-04 22:05 | 45.97721 | -55.21307 | 34795 ft | 552 kts | 77° |
| 2026-05-04 22:05 | 45.99627 | -55.10597 | 34806 ft | 551 kts | 77° |
| 2026-05-04 22:06 | 46.01516 | -54.99915 | 34769 ft | 551 kts | 77° |
| 2026-05-04 22:06 | 46.03402 | -54.89187 | 34800 ft | 553 kts | 77° |
| 2026-05-04 22:07 | 46.05281 | -54.78429 | 34803 ft | 553 kts | 77° |
| 2026-05-04 22:07 | 46.07150 | -54.67666 | 34807 ft | 552 kts | 77° |
| 2026-05-04 22:08 | 46.09004 | -54.56923 | 34815 ft | 551 kts | 77° |
| 2026-05-04 22:08 | 46.10846 | -54.46182 | 34807 ft | 551 kts | 77° |
| 2026-05-04 22:09 | 46.12667 | -54.35508 | 34781 ft | 551 kts | 77° |
| 2026-05-04 22:09 | 46.14496 | -54.24715 | 34804 ft | 553 kts | 78° |
| 2026-05-04 22:10 | 46.16307 | -54.13963 | 34797 ft | 550 kts | 78° |
| 2026-05-04 22:10 | 46.18107 | -54.03208 | 34802 ft | 550 kts | 78° |
| 2026-05-04 22:11 | 46.19894 | -53.92460 | 34790 ft | 550 kts | 78° |
| 2026-05-04 22:11 | 46.21672 | -53.81699 | 34803 ft | 550 kts | 78° |
| 2026-05-04 22:12 | 46.23439 | -53.70948 | 34767 ft | 549 kts | 78° |
| 2026-05-04 22:12 | 46.25182 | -53.60263 | 34799 ft | 549 kts | 78° |
| 2026-05-04 22:13 | 46.26928 | -53.49491 | 34805 ft | 549 kts | 78° |
| 2026-05-04 22:13 | 46.28664 | -53.38715 | 34789 ft | 549 kts | 78° |
| 2026-05-04 22:14 | 46.30391 | -53.27926 | 34798 ft | 548 kts | 78° |
| 2026-05-04 22:14 | 46.32098 | -53.17192 | 34795 ft | 546 kts | 79° |
| 2026-05-04 22:15 | 46.33792 | -53.06469 | 34767 ft | 546 kts | 79° |
| 2026-05-04 22:15 | 46.35482 | -52.95702 | 34785 ft | 548 kts | 79° |
| 2026-05-04 22:16 | 46.37153 | -52.84982 | 34791 ft | 549 kts | 79° |
| 2026-05-04 22:16 | 46.38826 | -52.74185 | 34798 ft | 547 kts | 79° |
| 2026-05-04 22:17 | 46.40484 | -52.63408 | 34792 ft | 547 kts | 79° |
| 2026-05-04 22:17 | 46.42133 | -52.52610 | 34814 ft | 547 kts | 79° |
| 2026-05-04 22:18 | 46.43770 | -52.41822 | 34782 ft | 547 kts | 79° |
| 2026-05-04 22:18 | 46.45400 | -52.31029 | 34804 ft | 547 kts | 80° |
| 2026-05-04 22:19 | 46.47003 | -52.20304 | 34828 ft | 547 kts | 80° |
| 2026-05-04 22:19 | 46.48607 | -52.09496 | 34834 ft | 547 kts | 80° |
| 2026-05-04 22:20 | 46.50417 | -51.98762 | 34842 ft | 549 kts | 75° |
| 2026-05-04 22:20 | 46.52983 | -51.88290 | 34845 ft | 549 kts | 70° |
| 2026-05-04 22:21 | 46.55713 | -51.77918 | 34841 ft | 548 kts | 70° |
| 2026-05-04 22:21 | 46.58418 | -51.67539 | 34815 ft | 548 kts | 71° |
| 2026-05-04 22:22 | 46.61105 | -51.57114 | 34838 ft | 549 kts | 71° |
| 2026-05-04 22:22 | 46.63768 | -51.46703 | 34851 ft | 549 kts | 71° |
| 2026-05-04 22:23 | 46.66424 | -51.36267 | 34834 ft | 549 kts | 71° |
| 2026-05-04 22:23 | 46.69061 | -51.25862 | 34855 ft | 549 kts | 71° |
| 2026-05-04 22:24 | 46.71700 | -51.15400 | 34865 ft | 549 kts | 71° |
| 2026-05-04 22:24 | 46.74332 | -51.04938 | 34859 ft | 548 kts | 72° |
| 2026-05-04 22:25 | 46.76939 | -50.94499 | 34867 ft | 548 kts | 72° |
| 2026-05-04 22:25 | 46.79542 | -50.84029 | 34862 ft | 548 kts | 72° |
| 2026-05-04 22:26 | 46.81703 | -50.75308 | 34846 ft | 549 kts | 72° |
| 2026-05-04 22:26 | 46.84713 | -50.63115 | 34870 ft | 547 kts | 72° |
| 2026-05-04 22:27 | 46.87287 | -50.52615 | 34871 ft | 547 kts | 72° |
| 2026-05-04 22:27 | 46.89416 | -50.43892 | 34869 ft | 547 kts | 73° |
| 2026-05-04 22:28 | 46.91968 | -50.33403 | 34868 ft | 547 kts | 73° |
| 2026-05-04 22:28 | 46.94512 | -50.22904 | 34880 ft | 545 kts | 73° |
| 2026-05-04 22:29 | 46.97032 | -50.12432 | 34878 ft | 545 kts | 73° |
| 2026-05-04 22:29 | 46.99546 | -50.01937 | 34876 ft | 545 kts | 73° |
| 2026-05-04 22:30 | 47.02124 | -49.91483 | 34865 ft | 545 kts | 72° |
| 2026-05-04 22:30 | 47.04765 | -49.81035 | 34873 ft | 546 kts | 72° |
| 2026-05-04 22:31 | 47.07395 | -49.70567 | 34885 ft | 546 kts | 72° |
| 2026-05-04 22:31 | 47.10009 | -49.60078 | 34883 ft | 546 kts | 72° |
| 2026-05-04 22:32 | 47.12594 | -49.49648 | 34884 ft | 545 kts | 73° |
| 2026-05-04 22:32 | 47.15175 | -49.39182 | 34883 ft | 543 kts | 73° |
| 2026-05-04 22:33 | 47.17740 | -49.28715 | 34884 ft | 543 kts | 73° |
| 2026-05-04 22:33 | 47.20295 | -49.18245 | 34884 ft | 543 kts | 73° |
| 2026-05-04 22:34 | 47.22842 | -49.07774 | 34892 ft | 542 kts | 73° |
| 2026-05-04 22:34 | 47.25371 | -48.97315 | 34894 ft | 541 kts | 73° |
| 2026-05-04 22:35 | 47.27884 | -48.86868 | 34894 ft | 541 kts | 73° |
| 2026-05-04 22:35 | 47.30386 | -48.76422 | 34905 ft | 540 kts | 73° |
| 2026-05-04 22:36 | 47.32883 | -48.65960 | 34908 ft | 539 kts | 74° |
| 2026-05-04 22:36 | 47.35342 | -48.55594 | 34909 ft | 538 kts | 74° |
| 2026-05-04 22:37 | 47.37808 | -48.45144 | 34907 ft | 538 kts | 74° |
| 2026-05-04 22:37 | 47.40262 | -48.34700 | 34917 ft | 538 kts | 74° |
| 2026-05-04 22:38 | 47.42709 | -48.24252 | 34914 ft | 536 kts | 75° |
| 2026-05-04 22:38 | 47.45133 | -48.13836 | 34916 ft | 536 kts | 75° |
| 2026-05-04 22:39 | 47.47550 | -48.03397 | 34922 ft | 536 kts | 75° |
| 2026-05-04 22:39 | 47.49963 | -47.92933 | 34918 ft | 538 kts | 75° |
| 2026-05-04 22:40 | 47.52374 | -47.82441 | 34929 ft | 536 kts | 75° |
| 2026-05-04 22:40 | 47.54759 | -47.71984 | 34927 ft | 535 kts | 75° |
| 2026-05-04 22:41 | 47.57138 | -47.61507 | 34943 ft | 535 kts | 76° |
| 2026-05-04 22:41 | 47.59488 | -47.51109 | 34950 ft | 535 kts | 76° |
| 2026-05-04 22:42 | 47.61846 | -47.40627 | 34949 ft | 535 kts | 76° |
| 2026-05-04 22:42 | 47.64195 | -47.30131 | 34950 ft | 535 kts | 76° |
| 2026-05-04 22:43 | 47.66533 | -47.19637 | 34952 ft | 535 kts | 76° |
| 2026-05-04 22:43 | 47.68861 | -47.09134 | 34947 ft | 535 kts | 76° |
| 2026-05-04 22:44 | 47.71180 | -46.98639 | 34923 ft | 535 kts | 76° |
| 2026-05-04 22:44 | 47.73488 | -46.88107 | 34948 ft | 535 kts | 77° |
| 2026-05-04 22:45 | 47.75787 | -46.77567 | 34965 ft | 535 kts | 77° |
| 2026-05-04 22:45 | 47.79209 | -46.61818 | 34950 ft | 533 kts | 77° |
| 2026-05-04 22:46 | 47.81469 | -46.51339 | 34966 ft | 531 kts | 77° |
| 2026-05-04 22:46 | 47.83712 | -46.40868 | 34976 ft | 530 kts | 77° |
| 2026-05-04 22:47 | 47.85949 | -46.30375 | 34978 ft | 530 kts | 77° |
| 2026-05-04 22:47 | 47.88178 | -46.19890 | 34956 ft | 528 kts | 78° |
| 2026-05-04 22:48 | 47.90385 | -46.09447 | 34967 ft | 526 kts | 78° |
| 2026-05-04 22:48 | 47.92576 | -45.99012 | 34961 ft | 528 kts | 78° |
| 2026-05-04 22:49 | 47.94764 | -45.88526 | 34979 ft | 528 kts | 78° |
| 2026-05-04 22:49 | 47.96945 | -45.78048 | 34964 ft | 526 kts | 79° |
| 2026-05-04 22:50 | 47.99098 | -45.67651 | 34983 ft | 523 kts | 79° |
| 2026-05-04 22:50 | 48.01219 | -45.57326 | 34988 ft | 522 kts | 79° |
| 2026-05-04 22:51 | 48.03345 | -45.46936 | 34991 ft | 522 kts | 79° |
| 2026-05-04 22:51 | 48.05466 | -45.36522 | 34962 ft | 520 kts | 80° |
| 2026-05-04 22:52 | 48.07562 | -45.26203 | 34989 ft | 515 kts | 80° |
| 2026-05-04 22:52 | 48.09629 | -45.15925 | 34994 ft | 515 kts | 80° |
| 2026-05-04 22:53 | 48.11685 | -45.05657 | 34933 ft | 514 kts | 80° |
| 2026-05-04 22:53 | 48.13737 | -44.95344 | 34953 ft | 515 kts | 80° |
| 2026-05-04 22:54 | 48.15758 | -44.85180 | 34992 ft | 510 kts | 80° |
| 2026-05-04 22:54 | 48.17770 | -44.74982 | 34999 ft | 509 kts | 80° |
| 2026-05-04 22:55 | 48.19773 | -44.64772 | 35000 ft | 509 kts | 81° |
| 2026-05-04 22:55 | 48.21765 | -44.54567 | 35000 ft | 509 kts | 81° |
| 2026-05-04 22:56 | 48.23745 | -44.44387 | 34995 ft | 506 kts | 81° |
| 2026-05-04 22:56 | 48.25703 | -44.34246 | 35005 ft | 505 kts | 81° |
| 2026-05-04 22:57 | 48.27649 | -44.24113 | 35003 ft | 505 kts | 81° |
| 2026-05-04 22:57 | 48.29589 | -44.13958 | 35004 ft | 505 kts | 81° |
| 2026-05-04 22:58 | 48.31515 | -44.03827 | 34945 ft | 501 kts | 81° |
| 2026-05-04 22:58 | 48.33408 | -43.93798 | 34994 ft | 502 kts | 81° |
| 2026-05-04 22:59 | 48.35311 | -43.83688 | 35003 ft | 502 kts | 81° |
| 2026-05-04 22:59 | 48.37205 | -43.73564 | 35006 ft | 502 kts | 81° |
| 2026-05-04 23:00 | 48.39090 | -43.63442 | 34977 ft | 501 kts | 81° |
| 2026-05-04 23:00 | 48.40900 | -43.53667 | 34997 ft | 501 kts | 82° |
| 2026-05-04 23:01 | 48.42759 | -43.43550 | 35012 ft | 501 kts | 82° |
| 2026-05-04 23:01 | 48.44611 | -43.33427 | 35012 ft | 500 kts | 82° |
| 2026-05-04 23:02 | 48.46454 | -43.23299 | 35013 ft | 500 kts | 82° |
| 2026-05-04 23:02 | 48.48289 | -43.13160 | 35004 ft | 500 kts | 82° |
| 2026-05-04 23:03 | 48.50115 | -43.03012 | 34974 ft | 500 kts | 82° |
| 2026-05-04 23:03 | 48.51930 | -42.92852 | 35004 ft | 502 kts | 82° |
| 2026-05-04 23:04 | 48.53745 | -42.82666 | 35012 ft | 502 kts | 82° |
| 2026-05-04 23:04 | 48.55538 | -42.72532 | 34994 ft | 502 kts | 82° |
| 2026-05-04 23:05 | 48.57333 | -42.62340 | 35009 ft | 502 kts | 82° |
| 2026-05-04 23:05 | 48.59120 | -42.52134 | 35011 ft | 501 kts | 82° |
| 2026-05-04 23:06 | 48.60895 | -42.41928 | 35013 ft | 501 kts | 82° |
| 2026-05-04 23:06 | 48.62661 | -42.31710 | 34997 ft | 501 kts | 82° |
| 2026-05-04 23:07 | 48.64418 | -42.21468 | 35022 ft | 502 kts | 81° |
| 2026-05-04 23:07 | 48.66253 | -42.10751 | 35025 ft | 502 kts | 82° |
| 2026-05-04 23:08 | 48.75425 | -41.56087 | 35068 ft | 500 kts | 82° |
| 2026-05-04 23:08 | 48.84104 | -41.02660 | 35109 ft | 501 kts | 82° |
| 2026-05-04 23:09 | 48.95281 | -40.48721 | 35137 ft | 508 kts | 68° |
| 2026-05-04 23:09 | 49.10562 | -39.95998 | 35168 ft | 509 kts | 69° |
| 2026-05-04 23:10 | 49.25709 | -39.42175 | 35198 ft | 508 kts | 68° |
| 2026-05-04 23:10 | 49.40482 | -38.88464 | 35238 ft | 510 kts | 68° |
| 2026-05-04 23:11 | 49.54814 | -38.35164 | 35240 ft | 512 kts | 68° |
| 2026-05-04 23:11 | 49.69826 | -37.77983 | 35275 ft | 513 kts | 68° |
| 2026-05-04 23:12 | 49.84320 | -37.21364 | 35296 ft | 517 kts | 67° |
| 2026-05-04 23:12 | 49.98526 | -36.64473 | 35323 ft | 518 kts | 67° |
| 2026-05-04 23:13 | 50.12969 | -36.05054 | 35351 ft | 518 kts | 65° |
| 2026-05-04 23:13 | 50.26794 | -35.46680 | 35354 ft | 516 kts | 65° |
| 2026-05-04 23:14 | 50.40128 | -34.88812 | 35378 ft | 513 kts | 65° |
| 2026-05-04 23:14 | 50.52883 | -34.31898 | 35404 ft | 512 kts | 65° |
| 2026-05-04 23:15 | 50.63321 | -33.84168 | 35410 ft | 510 kts | 64° |
| 2026-05-04 23:15 | 50.75575 | -33.26691 | 35418 ft | 511 kts | 64° |
| 2026-05-04 23:16 | 50.87759 | -32.67829 | 35433 ft | 512 kts | 64° |
| 2026-05-04 23:16 | 50.99876 | -32.07516 | 35429 ft | 512 kts | 64° |
| 2026-05-04 23:17 | 51.11650 | -31.47058 | 35442 ft | 512 kts | 65° |
| 2026-05-04 23:17 | 51.23108 | -30.86362 | 35466 ft | 508 kts | 68° |
| 2026-05-04 23:18 | 51.33445 | -30.29644 | 35459 ft | 507 kts | 68° |
| 2026-05-04 23:18 | 51.43807 | -29.71103 | 35457 ft | 503 kts | 70° |
| 2026-05-04 23:19 | 51.53825 | -29.12597 | 35474 ft | 502 kts | 72° |
| 2026-05-04 23:19 | 51.63506 | -28.54143 | 35457 ft | 500 kts | 74° |
| 2026-05-04 23:20 | 51.72846 | -27.95692 | 35454 ft | 500 kts | 75° |
| 2026-05-04 23:20 | 51.82099 | -27.35688 | 35451 ft | 501 kts | 75° |
| 2026-05-04 23:21 | 51.90612 | -26.78410 | 35447 ft | 502 kts | 76° |
| 2026-05-04 23:21 | 51.99044 | -26.19508 | 35444 ft | 503 kts | 76° |
| 2026-05-04 23:22 | 52.07334 | -25.59263 | 35441 ft | 503 kts | 77° |
| 2026-05-04 23:22 | 52.15402 | -24.98118 | 35435 ft | 502 kts | 77° |
| 2026-05-04 23:23 | 52.23155 | -24.36746 | 35438 ft | 501 kts | 78° |
| 2026-05-04 23:23 | 52.30549 | -23.75487 | 35423 ft | 498 kts | 78° |
| 2026-05-04 23:24 | 52.37476 | -23.15372 | 35414 ft | 497 kts | 78° |
| 2026-05-04 23:24 | 52.43842 | -22.57442 | 35404 ft | 496 kts | 79° |
| 2026-05-04 23:25 | 52.50146 | -21.97173 | 35396 ft | 495 kts | 79° |
| 2026-05-04 23:25 | 52.56110 | -21.37084 | 35375 ft | 494 kts | 79° |
| 2026-05-04 23:26 | 52.61665 | -20.77971 | 35375 ft | 493 kts | 80° |
| 2026-05-04 23:26 | 52.66879 | -20.19243 | 35358 ft | 492 kts | 81° |
| 2026-05-04 23:27 | 52.71830 | -19.60035 | 35346 ft | 491 kts | 81° |
| 2026-05-04 23:27 | 52.76446 | -19.01214 | 35334 ft | 490 kts | 81° |
| 2026-05-04 23:28 | 52.80936 | -18.39931 | 35330 ft | 489 kts | 81° |
| 2026-05-04 23:28 | 52.85154 | -17.77886 | 35303 ft | 488 kts | 82° |
| 2026-05-04 23:29 | 52.88959 | -17.17159 | 35284 ft | 490 kts | 83° |
| 2026-05-04 23:29 | 52.92525 | -16.55016 | 35268 ft | 491 kts | 83° |
| 2026-05-04 23:30 | 52.95714 | -15.93864 | 35260 ft | 491 kts | 84° |
| 2026-05-04 23:30 | 52.98636 | -15.31536 | 35251 ft | 489 kts | 84° |
| 2026-05-04 23:31 | 53.00080 | -14.71296 | 35237 ft | 491 kts | 88° |
| 2026-05-04 23:31 | 53.00024 | -14.08643 | 35221 ft | 492 kts | 89° |
| 2026-05-04 23:32 | 52.95547 | -13.47969 | 35206 ft | 493 kts | 97° |
| 2026-05-04 23:32 | 52.90270 | -12.89448 | 35200 ft | 494 kts | 98° |
| 2026-05-04 23:33 | 52.84499 | -12.28941 | 35191 ft | 494 kts | 98° |
| 2026-05-04 23:33 | 52.78522 | -11.69567 | 35184 ft | 493 kts | 99° |
| 2026-05-04 23:34 | 52.72132 | -11.09317 | 35176 ft | 491 kts | 99° |
| 2026-05-04 23:34 | 52.65581 | -10.50446 | 35168 ft | 488 kts | 100° |
| 2026-05-04 23:35 | 52.60543 | -10.06991 | 35166 ft | 488 kts | 100° |
| 2026-05-04 23:35 | 52.59244 | -9.96037 | 35161 ft | 487 kts | 100° |
| 2026-05-04 23:36 | 52.57935 | -9.85108 | 35163 ft | 484 kts | 100° |
| 2026-05-04 23:36 | 52.56628 | -9.74237 | 35159 ft | 484 kts | 100° |
| 2026-05-04 23:37 | 52.55312 | -9.63377 | 35158 ft | 484 kts | 100° |
| 2026-05-04 23:37 | 52.53985 | -9.52525 | 35152 ft | 484 kts | 100° |
| 2026-05-04 23:38 | 52.52597 | -9.41274 | 35157 ft | 482 kts | 100° |
| 2026-05-04 23:38 | 52.45563 | -8.85633 | 35150 ft | 480 kts | 101° |
| 2026-05-04 23:39 | 52.38105 | -8.28956 | 35138 ft | 475 kts | 101° |
| 2026-05-04 23:39 | 52.30178 | -7.71034 | 35123 ft | 474 kts | 101° |
| 2026-05-04 23:40 | 52.22630 | -7.17908 | 35116 ft | 468 kts | 101° |
| 2026-05-04 23:40 | 52.15050 | -6.66323 | 35109 ft | 467 kts | 101° |
| 2026-05-04 23:41 | 52.06560 | -6.10479 | 35103 ft | 461 kts | 101° |
| 2026-05-04 23:41 | 51.97040 | -5.54658 | 35081 ft | 459 kts | 103° |